createdAt,value
2023-05-17T00:01:03.348Z,64.87
2023-05-17T00:03:30.958Z,64.66
2023-05-17T00:05:59.017Z,64.83
2023-05-17T00:08:26.747Z,64.55
2023-05-17T00:10:54.428Z,64.85
2023-05-17T00:13:22.434Z,65.06
2023-05-17T00:15:50.037Z,64.99
2023-05-17T00:18:18.349Z,65.10
2023-05-17T00:20:46.190Z,65.41
2023-05-17T00:23:13.824Z,65.06
2023-05-17T00:25:41.475Z,65.12
2023-05-17T00:28:09.138Z,65.11
2023-05-17T00:30:38.889Z,65.41
2023-05-17T00:33:06.610Z,65.44
2023-05-17T00:35:34.314Z,65.36
2023-05-17T00:38:02.136Z,65.05
2023-05-17T00:40:29.784Z,65.04
2023-05-17T00:42:57.502Z,65.68
2023-05-17T00:45:25.168Z,65.20
2023-05-17T00:47:52.849Z,65.62
2023-05-17T00:50:20.590Z,65.64
2023-05-17T00:52:48.563Z,65.52
2023-05-17T00:55:16.521Z,65.80
2023-05-17T00:57:44.248Z,65.48
2023-05-17T01:00:11.888Z,65.74
2023-05-17T01:02:39.607Z,65.66
2023-05-17T01:05:07.556Z,65.72
2023-05-17T01:07:35.901Z,65.86
2023-05-17T01:10:03.537Z,65.72
2023-05-17T01:12:31.234Z,65.64
2023-05-17T01:14:59.179Z,65.76
2023-05-17T01:17:26.897Z,65.51
2023-05-17T01:19:55.204Z,65.37
2023-05-17T01:22:22.961Z,65.57
2023-05-17T01:24:50.598Z,66.06
2023-05-17T01:27:18.248Z,66.00
2023-05-17T01:29:45.867Z,65.93
2023-05-17T01:32:13.815Z,65.99
2023-05-17T01:34:41.475Z,65.82
2023-05-17T01:37:09.157Z,66.00
2023-05-17T01:39:36.900Z,65.95
2023-05-17T01:42:04.523Z,66.41
2023-05-17T01:44:33.195Z,66.05
2023-05-17T01:47:00.967Z,65.98
2023-05-17T01:49:28.652Z,66.14
2023-05-17T01:51:56.321Z,66.18
2023-05-17T01:54:23.953Z,66.43
2023-05-17T01:56:51.924Z,65.92
2023-05-17T01:59:20.052Z,66.31
2023-05-17T02:01:47.676Z,66.20
2023-05-17T02:04:15.548Z,66.19
2023-05-17T02:06:43.434Z,65.96
2023-05-17T02:09:11.850Z,66.67
2023-05-17T02:11:39.515Z,66.28
2023-05-17T02:14:07.157Z,66.27
2023-05-17T02:16:34.866Z,66.11
2023-05-17T02:19:02.590Z,66.44
2023-05-17T02:21:32.425Z,66.62
2023-05-17T02:24:00.074Z,66.00
2023-05-17T02:26:27.965Z,66.54
2023-05-17T02:28:55.621Z,66.85
2023-05-17T02:31:25.050Z,66.94
2023-05-17T02:33:53.182Z,67.12
2023-05-17T02:36:21.533Z,67.09
2023-05-17T02:38:49.180Z,67.15
2023-05-17T02:41:16.786Z,67.02
2023-05-17T02:43:44.880Z,67.23
2023-05-17T02:46:12.735Z,67.18
2023-05-17T02:48:40.414Z,67.22
2023-05-17T02:51:07.981Z,67.19
2023-05-17T02:53:35.618Z,67.98
2023-05-17T02:56:04.217Z,67.19
2023-05-17T02:58:32.193Z,67.15
2023-05-17T03:00:59.834Z,67.16
2023-05-17T03:03:27.599Z,67.23
2023-05-17T03:05:55.382Z,66.99
2023-05-17T03:08:23.035Z,66.99
2023-05-17T03:10:51.854Z,66.48
2023-05-17T03:13:19.466Z,66.71
2023-05-17T03:15:47.097Z,66.67
2023-05-17T03:18:15.100Z,66.44
2023-05-17T03:20:42.720Z,66.67
2023-05-17T03:23:10.517Z,66.38
2023-05-17T03:25:38.229Z,66.39
2023-05-17T03:28:06.429Z,66.39
2023-05-17T03:30:34.098Z,66.38
2023-05-17T03:33:01.850Z,66.71
2023-05-17T03:35:30.245Z,66.29
2023-05-17T03:37:58.048Z,66.42
2023-05-17T03:40:26.227Z,66.32
2023-05-17T03:42:54.315Z,66.64
2023-05-17T03:45:22.003Z,66.62
2023-05-17T03:47:50.275Z,66.94
2023-05-17T03:50:18.239Z,66.88
2023-05-17T03:52:46.360Z,67.06
2023-05-17T03:55:13.998Z,66.98
2023-05-17T03:57:41.579Z,66.85
2023-05-17T04:00:12.148Z,66.83
2023-05-17T04:02:39.864Z,66.82
2023-05-17T04:05:07.515Z,66.54
2023-05-17T04:07:35.319Z,66.68
2023-05-17T04:10:03.866Z,66.74
2023-05-17T04:12:33.721Z,66.37
2023-05-17T04:15:01.333Z,66.32
2023-05-17T04:17:29.008Z,66.37
2023-05-17T04:19:56.807Z,66.13
2023-05-17T04:22:24.518Z,65.84
2023-05-17T04:24:52.536Z,65.77
2023-05-17T04:27:20.145Z,65.91
2023-05-17T04:29:47.774Z,65.72
2023-05-17T04:32:15.436Z,65.75
2023-05-17T04:34:43.345Z,65.96
2023-05-17T04:37:11.274Z,65.63
2023-05-17T04:39:38.986Z,65.60
2023-05-17T04:42:06.609Z,65.66
2023-05-17T04:44:34.299Z,65.45
2023-05-17T04:47:02.411Z,65.61
2023-05-17T04:49:30.648Z,65.47
2023-05-17T04:51:58.268Z,65.53
2023-05-17T04:54:26.346Z,65.34
2023-05-17T04:56:53.938Z,64.87
2023-05-17T04:59:21.563Z,64.88
2023-05-17T05:01:49.753Z,64.96
2023-05-17T05:04:17.534Z,65.05
2023-05-17T05:06:45.254Z,64.95
2023-05-17T05:09:12.944Z,64.67
2023-05-17T05:11:40.616Z,64.93
2023-05-17T05:14:08.588Z,64.71
2023-05-17T05:16:36.850Z,64.90
2023-05-17T05:19:04.720Z,64.61
2023-05-17T05:21:32.631Z,64.90
2023-05-17T05:24:00.344Z,64.67
2023-05-17T05:26:28.432Z,64.51
2023-05-17T05:28:56.076Z,64.34
2023-05-17T05:31:23.876Z,64.58
2023-05-17T05:33:51.546Z,64.53
2023-05-17T05:36:19.307Z,64.13
2023-05-17T05:38:48.804Z,63.90
2023-05-17T05:41:16.521Z,63.91
2023-05-17T05:43:44.228Z,63.60
2023-05-17T05:46:12.031Z,63.80
2023-05-17T05:48:42.170Z,63.99
2023-05-17T05:51:11.320Z,64.21
2023-05-17T05:53:38.996Z,63.82
2023-05-17T05:56:06.642Z,63.75
2023-05-17T05:58:34.452Z,63.81
2023-05-17T06:01:05.372Z,63.57
2023-05-17T06:03:34.280Z,63.44
2023-05-17T06:06:02.176Z,63.89
2023-05-17T06:08:29.981Z,63.39
2023-05-17T06:10:57.733Z,63.12
2023-05-17T06:13:25.550Z,63.32
2023-05-17T06:15:53.608Z,63.01
2023-05-17T06:18:21.352Z,62.94
2023-05-17T06:20:49.184Z,63.01
2023-05-17T06:23:17.281Z,62.53
2023-05-17T06:25:44.987Z,62.58
2023-05-17T06:28:13.464Z,62.86
2023-05-17T06:30:41.254Z,62.93
2023-05-17T06:33:09.069Z,63.15
2023-05-17T06:35:47.961Z,63.63
2023-05-17T06:38:22.278Z,63.47
2023-05-17T06:40:50.027Z,63.23
2023-05-17T06:43:18.151Z,63.02
2023-05-17T06:45:45.861Z,62.75
2023-05-17T06:48:13.860Z,62.82
2023-05-17T06:50:42.203Z,62.73
2023-05-17T06:53:09.955Z,62.56
2023-05-17T06:55:37.708Z,62.41
2023-05-17T06:58:05.358Z,62.47
2023-05-17T07:00:33.337Z,62.43
2023-05-17T07:03:01.817Z,62.64
2023-05-17T07:05:31.158Z,62.35
2023-05-17T07:07:59.192Z,62.59
2023-05-17T07:10:27.116Z,62.37
2023-05-17T07:12:55.087Z,62.98
2023-05-17T07:15:23.854Z,62.31
2023-05-17T07:17:51.877Z,62.29
2023-05-17T07:20:19.687Z,61.20
2023-05-17T07:22:48.507Z,60.47
2023-05-17T07:25:18.293Z,59.79
2023-05-17T07:27:47.931Z,59.92
2023-05-17T07:30:15.806Z,59.11
2023-05-17T07:32:43.559Z,59.05
2023-05-17T07:35:11.356Z,58.50
2023-05-17T07:37:39.009Z,58.61
2023-05-17T07:40:07.129Z,58.88
2023-05-17T07:42:35.051Z,58.85
2023-05-17T07:45:03.292Z,58.58
2023-05-17T07:47:31.120Z,58.54
2023-05-17T07:49:59.016Z,59.72
2023-05-17T07:52:27.292Z,59.93
2023-05-17T07:54:55.153Z,59.09
2023-05-17T07:57:23.045Z,58.95
2023-05-17T07:59:50.776Z,58.75
2023-05-17T08:02:18.889Z,58.11
2023-05-17T08:04:47.429Z,58.14
2023-05-17T08:07:15.289Z,57.39
2023-05-17T08:09:45.650Z,57.33
2023-05-17T08:12:13.487Z,57.17
2023-05-17T08:14:41.209Z,56.66
2023-05-17T08:17:09.436Z,56.51
2023-05-17T08:19:37.384Z,56.16
2023-05-17T08:22:05.277Z,56.34
2023-05-17T08:24:33.111Z,55.99
2023-05-17T08:27:00.845Z,55.02
2023-05-17T08:29:29.922Z,54.54
2023-05-17T08:31:57.855Z,55.31
2023-05-17T08:34:25.904Z,55.24
2023-05-17T08:36:53.892Z,55.11
2023-05-17T08:39:22.157Z,55.86
2023-05-17T08:41:50.135Z,56.19
2023-05-17T08:44:18.105Z,56.89
2023-05-17T08:46:45.992Z,57.30
2023-05-17T08:49:16.111Z,57.75
2023-05-17T08:51:44.286Z,57.41
2023-05-17T08:54:12.917Z,57.43
2023-05-17T08:56:40.965Z,56.84
2023-05-17T08:59:08.886Z,56.09
2023-05-17T09:01:37.039Z,55.39
2023-05-17T09:04:04.903Z,54.67
2023-05-17T09:06:33.354Z,54.06
2023-05-17T09:09:01.741Z,53.75
2023-05-17T09:11:29.777Z,53.41
2023-05-17T09:13:57.947Z,52.53
2023-05-17T09:16:26.826Z,52.52
2023-05-17T09:18:55.593Z,52.24
2023-05-17T09:21:23.833Z,51.47
2023-05-17T09:24:04.863Z,51.03
2023-05-17T09:26:34.373Z,51.26
2023-05-17T09:29:03.278Z,50.99
2023-05-17T09:31:31.747Z,50.56
2023-05-17T09:33:59.783Z,50.61
2023-05-17T09:36:27.729Z,50.25
2023-05-17T09:38:55.730Z,49.61
2023-05-17T09:41:24.332Z,49.58
2023-05-17T09:43:52.427Z,49.17
2023-05-17T09:46:20.382Z,48.88
2023-05-17T09:48:48.336Z,47.99
2023-05-17T09:51:16.453Z,48.52
2023-05-17T09:53:44.759Z,48.76
2023-05-17T09:56:13.524Z,50.14
2023-05-17T09:58:41.414Z,49.94
2023-05-17T10:01:11.096Z,49.58
2023-05-17T10:03:39.442Z,49.39
2023-05-17T10:06:08.177Z,50.37
2023-05-17T10:08:36.814Z,50.96
2023-05-17T10:11:05.442Z,51.76
2023-05-17T10:13:33.503Z,51.26
2023-05-17T10:16:01.358Z,50.48
2023-05-17T10:18:31.997Z,49.03
2023-05-17T10:21:00.843Z,47.75
2023-05-17T10:23:28.639Z,46.70
2023-05-17T10:25:56.431Z,47.08
2023-05-17T10:28:24.315Z,48.62
2023-05-17T10:30:52.527Z,49.38
2023-05-17T10:33:20.446Z,47.74
2023-05-17T10:35:48.454Z,47.09
2023-05-17T10:38:16.221Z,45.10
2023-05-17T10:40:44.432Z,44.79
2023-05-17T10:43:13.293Z,44.26
2023-05-17T10:45:41.187Z,44.61
2023-05-17T10:48:09.064Z,45.25
2023-05-17T10:50:37.654Z,45.73
2023-05-17T10:53:06.017Z,45.13
2023-05-17T10:55:34.393Z,43.84
2023-05-17T10:58:02.366Z,42.96
2023-05-17T11:00:33.607Z,41.87
2023-05-17T11:03:03.246Z,41.50
2023-05-17T11:05:31.573Z,40.39
2023-05-17T11:07:59.991Z,39.27
2023-05-17T11:10:28.083Z,39.88
2023-05-17T11:12:58.048Z,39.93
2023-05-17T11:15:25.919Z,40.65
2023-05-17T11:17:55.038Z,42.38
2023-05-17T11:20:23.659Z,41.61
2023-05-17T11:22:51.474Z,42.87
2023-05-17T11:25:19.317Z,43.92
2023-05-17T11:27:47.329Z,44.24
2023-05-17T11:30:15.423Z,44.34
2023-05-17T11:32:44.149Z,45.12
2023-05-17T11:35:12.127Z,46.43
2023-05-17T11:37:39.961Z,46.91
2023-05-17T11:40:08.433Z,47.55
2023-05-17T11:42:37.522Z,46.40
2023-05-17T11:45:07.858Z,44.96
2023-05-17T11:47:35.929Z,43.92
2023-05-17T11:50:03.783Z,44.11
2023-05-17T11:52:31.663Z,45.52
2023-05-17T11:54:59.811Z,45.25
2023-05-17T11:57:28.145Z,43.59
2023-05-17T11:59:56.410Z,42.57
2023-05-17T12:02:24.373Z,43.27
2023-05-17T12:04:52.453Z,43.21
2023-05-17T12:07:20.233Z,42.21
2023-05-17T12:09:48.523Z,40.00
2023-05-17T12:12:16.691Z,39.16
2023-05-17T12:14:44.484Z,38.13
2023-05-17T12:17:12.488Z,37.95
2023-05-17T12:19:40.393Z,38.39
2023-05-17T12:22:09.464Z,39.42
2023-05-17T12:24:38.385Z,39.42
2023-05-17T12:27:06.252Z,38.05
2023-05-17T12:29:34.688Z,37.83
2023-05-17T12:32:02.766Z,36.44
2023-05-17T12:34:31.083Z,35.87
2023-05-17T12:36:58.816Z,35.15
2023-05-17T12:39:26.889Z,35.48
2023-05-17T12:41:54.831Z,34.57
2023-05-17T12:44:22.810Z,35.59
2023-05-17T12:46:54.821Z,36.06
2023-05-17T12:49:23.542Z,35.57
2023-05-17T12:51:51.816Z,34.89
2023-05-17T12:54:19.909Z,34.44
2023-05-17T12:56:47.817Z,34.29
2023-05-17T12:59:17.053Z,34.90
2023-05-17T13:01:45.186Z,34.60
2023-05-17T13:04:13.336Z,34.54
2023-05-17T13:06:41.323Z,34.79
2023-05-17T13:09:11.139Z,36.50
2023-05-17T13:11:42.130Z,37.98
2023-05-17T13:14:10.470Z,39.81
2023-05-17T13:16:38.402Z,39.00
2023-05-17T13:19:06.200Z,38.14
2023-05-17T13:21:34.250Z,36.99
2023-05-17T13:24:02.754Z,36.40
2023-05-17T13:26:30.795Z,35.21
2023-05-17T13:28:58.740Z,36.24
2023-05-17T13:31:26.556Z,36.71
2023-05-17T13:33:54.607Z,37.19
2023-05-17T13:36:23.064Z,38.39
2023-05-17T13:38:50.962Z,39.79
2023-05-17T13:41:18.927Z,40.70
2023-05-17T13:43:47.600Z,39.78
2023-05-17T13:46:15.754Z,39.79
2023-05-17T13:48:44.832Z,39.69
2023-05-17T13:51:12.757Z,40.54
2023-05-17T13:53:41.675Z,41.35
2023-05-17T13:56:09.450Z,41.96
2023-05-17T13:58:37.929Z,42.92
2023-05-17T14:01:07.229Z,42.42
2023-05-17T14:03:35.264Z,41.52
2023-05-17T14:06:03.268Z,39.61
2023-05-17T14:08:31.227Z,38.01
2023-05-17T14:10:59.194Z,36.46
2023-05-17T14:13:28.356Z,36.41
2023-05-17T14:15:56.197Z,35.70
2023-05-17T14:18:24.216Z,35.54
2023-05-17T14:20:53.621Z,34.91
2023-05-17T14:23:21.475Z,35.60
2023-05-17T14:25:50.868Z,37.84
2023-05-17T14:28:19.429Z,38.46
2023-05-17T14:30:47.574Z,38.79
2023-05-17T14:33:15.689Z,39.50
2023-05-17T14:35:43.801Z,39.42
2023-05-17T14:38:12.095Z,38.83
2023-05-17T14:40:40.042Z,39.35
2023-05-17T14:43:08.480Z,39.68
2023-05-17T14:45:36.309Z,39.90
2023-05-17T14:48:04.216Z,39.22
2023-05-17T14:50:33.427Z,39.92
2023-05-17T14:53:01.345Z,37.96
2023-05-17T14:55:30.440Z,37.33
2023-05-17T14:57:59.056Z,36.33
2023-05-17T15:00:27.376Z,36.28
2023-05-17T15:02:56.625Z,36.34
2023-05-17T15:05:24.737Z,35.91
2023-05-17T15:07:52.836Z,36.26
2023-05-17T15:10:20.824Z,35.41
2023-05-17T15:12:49.138Z,33.82
2023-05-17T15:15:17.568Z,33.05
2023-05-17T15:17:45.535Z,32.83
2023-05-17T15:20:13.926Z,32.33
2023-05-17T15:22:41.731Z,32.37
2023-05-17T15:25:09.661Z,32.27
2023-05-17T15:27:38.257Z,32.55
2023-05-17T15:30:06.146Z,32.29
2023-05-17T15:32:34.131Z,33.59
2023-05-17T15:35:02.243Z,34.53
2023-05-17T15:37:30.133Z,36.21
2023-05-17T15:39:58.842Z,37.23
2023-05-17T15:42:32.390Z,38.55
2023-05-17T15:45:00.818Z,39.92
2023-05-17T15:47:42.582Z,40.62
2023-05-17T15:50:12.997Z,40.72
2023-05-17T15:52:40.958Z,40.05
2023-05-17T15:55:09.531Z,40.30
2023-05-17T15:57:37.382Z,40.83
2023-05-17T16:00:05.574Z,40.24
2023-05-17T16:02:34.430Z,38.60
2023-05-17T16:05:04.025Z,36.78
2023-05-17T16:07:32.825Z,35.82
2023-05-17T16:10:00.728Z,36.58
2023-05-17T16:12:29.017Z,37.58
2023-05-17T16:14:57.853Z,38.30
2023-05-17T16:17:25.830Z,37.82
2023-05-17T16:19:53.866Z,37.81
2023-05-17T16:22:22.171Z,37.57
2023-05-17T16:24:50.308Z,37.44
2023-05-17T16:27:20.140Z,36.80
2023-05-17T16:29:48.219Z,37.32
2023-05-17T16:32:16.241Z,38.54
2023-05-17T16:34:44.154Z,40.43
2023-05-17T16:37:12.428Z,42.11
2023-05-17T16:39:40.331Z,42.98
2023-05-17T16:42:08.322Z,43.85
2023-05-17T16:44:36.241Z,44.01
2023-05-17T16:47:04.436Z,44.50
2023-05-17T16:49:33.144Z,44.50
2023-05-17T16:52:01.508Z,45.10
2023-05-17T16:54:30.129Z,44.86
2023-05-17T16:56:58.067Z,45.45
2023-05-17T16:59:25.852Z,45.07
2023-05-17T17:01:53.712Z,45.20
2023-05-17T17:04:22.822Z,45.18
2023-05-17T17:06:50.813Z,45.38
2023-05-17T17:09:18.843Z,45.90
2023-05-17T17:11:47.440Z,45.65
2023-05-17T17:14:15.284Z,45.80
2023-05-17T17:16:44.335Z,45.39
2023-05-17T17:19:12.326Z,46.49
2023-05-17T17:21:42.478Z,46.32
2023-05-17T17:24:10.373Z,46.68
2023-05-17T17:26:38.422Z,46.51
2023-05-17T17:29:07.123Z,46.34
2023-05-17T17:31:35.064Z,46.67
2023-05-17T17:34:03.043Z,47.02
2023-05-17T17:36:31.411Z,46.50
2023-05-17T17:38:59.317Z,46.71
2023-05-17T17:41:28.192Z,46.30
2023-05-17T17:43:56.056Z,46.63
2023-05-17T17:46:24.698Z,47.17
2023-05-17T17:48:53.785Z,46.79
2023-05-17T17:51:22.211Z,46.95
2023-05-17T17:53:53.869Z,47.47
2023-05-17T17:56:21.735Z,47.53
2023-05-17T17:58:49.575Z,47.29
2023-05-17T18:01:17.992Z,47.54
2023-05-17T18:03:45.975Z,47.67
2023-05-17T18:06:14.375Z,47.54
2023-05-17T18:08:42.369Z,48.12
2023-05-17T18:11:10.209Z,47.63
2023-05-17T18:13:38.097Z,48.05
2023-05-17T18:16:06.621Z,47.82
2023-05-17T18:18:35.281Z,48.24
2023-05-17T18:21:03.198Z,48.00
2023-05-17T18:23:31.499Z,48.14
2023-05-17T18:25:59.460Z,48.67
2023-05-17T18:28:38.197Z,48.69
2023-05-17T18:31:10.090Z,48.24
2023-05-17T18:33:37.961Z,48.68
2023-05-17T18:36:05.882Z,48.52
2023-05-17T18:38:35.700Z,49.14
2023-05-17T18:41:03.522Z,49.06
2023-05-17T18:43:31.789Z,49.14
2023-05-17T18:45:59.957Z,49.15
2023-05-17T18:48:28.078Z,48.83
2023-05-17T18:50:57.768Z,48.92
2023-05-17T18:53:25.754Z,50.00
2023-05-17T18:55:53.813Z,49.47
2023-05-17T18:58:22.303Z,49.80
2023-05-17T19:00:50.276Z,50.24
2023-05-17T19:03:18.221Z,49.82
2023-05-17T19:05:46.088Z,50.11
2023-05-17T19:08:14.408Z,49.99
2023-05-17T19:10:42.331Z,50.22
2023-05-17T19:13:11.229Z,50.62
2023-05-17T19:15:39.252Z,50.40
2023-05-17T19:18:07.346Z,51.05
2023-05-17T19:20:37.978Z,50.89
2023-05-17T19:23:06.424Z,51.42
2023-05-17T19:25:34.397Z,51.27
2023-05-17T19:28:02.356Z,51.50
2023-05-17T19:30:32.594Z,51.54
2023-05-17T19:33:01.580Z,51.59
2023-05-17T19:35:29.641Z,51.96
2023-05-17T19:37:57.797Z,51.73
2023-05-17T19:40:25.697Z,52.38
2023-05-17T19:42:53.957Z,52.18
2023-05-17T19:45:22.729Z,52.36
2023-05-17T19:47:50.793Z,52.60
2023-05-17T19:50:18.769Z,52.83
2023-05-17T19:52:46.802Z,52.70
2023-05-17T19:55:15.966Z,52.54
2023-05-17T19:57:44.984Z,53.26
2023-05-17T20:00:13.091Z,53.32
2023-05-17T20:02:41.120Z,53.14
2023-05-17T20:05:09.131Z,53.57
2023-05-17T20:07:38.110Z,53.58
2023-05-17T20:10:07.328Z,53.58
2023-05-17T20:12:35.207Z,53.63
2023-05-17T20:15:03.344Z,53.72
2023-05-17T20:17:31.318Z,53.80
2023-05-17T20:19:59.330Z,54.43
2023-05-17T20:22:27.481Z,54.32
2023-05-17T20:24:57.800Z,53.96
2023-05-17T20:27:26.458Z,53.96
2023-05-17T20:29:56.035Z,54.69
2023-05-17T20:32:23.829Z,54.19
2023-05-17T20:34:52.502Z,54.61
2023-05-17T20:37:20.347Z,54.19
2023-05-17T20:39:48.221Z,54.60
2023-05-17T20:42:18.754Z,54.61
2023-05-17T20:44:48.408Z,54.83
2023-05-17T20:47:17.209Z,54.78
2023-05-17T20:49:45.190Z,54.48
2023-05-17T20:52:14.931Z,55.24
2023-05-17T20:54:43.951Z,55.03
2023-05-17T20:57:11.931Z,55.21
2023-05-17T20:59:40.240Z,55.20
2023-05-17T21:02:08.109Z,55.30
2023-05-17T21:04:37.691Z,55.42
2023-05-17T21:07:05.608Z,55.32
2023-05-17T21:09:33.999Z,55.48
2023-05-17T21:12:02.453Z,55.81
2023-05-17T21:14:30.308Z,55.89
2023-05-17T21:16:58.126Z,55.89
2023-05-17T21:19:26.136Z,55.73
2023-05-17T21:21:54.033Z,56.48
2023-05-17T21:24:22.626Z,56.49
2023-05-17T21:26:50.390Z,56.76
2023-05-17T21:29:18.681Z,56.58
2023-05-17T21:31:46.587Z,56.82
2023-05-17T21:34:14.594Z,56.99
2023-05-17T21:36:43.150Z,56.94
2023-05-17T21:39:10.933Z,57.20
2023-05-17T21:41:38.920Z,56.89
2023-05-17T21:44:06.876Z,57.24
2023-05-17T21:46:34.601Z,57.25
2023-05-17T21:49:03.062Z,57.32
2023-05-17T21:51:31.833Z,57.25
2023-05-17T21:53:59.535Z,57.38
2023-05-17T21:56:27.198Z,57.32
2023-05-17T21:58:55.121Z,57.50
2023-05-17T22:01:24.760Z,57.66
2023-05-17T22:03:53.837Z,57.60
2023-05-17T22:06:21.909Z,57.89
2023-05-17T22:08:49.798Z,57.77
2023-05-17T22:11:18.341Z,57.91
2023-05-17T22:13:47.856Z,57.74
2023-05-17T22:16:15.697Z,57.62
2023-05-17T22:18:45.521Z,57.81
2023-05-17T22:21:14.796Z,57.98
2023-05-17T22:23:42.691Z,58.02
2023-05-17T22:26:11.013Z,58.20
2023-05-17T22:28:38.879Z,58.17
2023-05-17T22:31:07.658Z,58.75
2023-05-17T22:33:37.638Z,58.81
2023-05-17T22:36:05.476Z,58.84
2023-05-17T22:38:33.433Z,58.96
2023-05-17T22:41:01.052Z,59.49
2023-05-17T22:43:30.369Z,59.33
2023-05-17T22:45:59.997Z,59.27
2023-05-17T22:48:30.594Z,59.44
2023-05-17T22:50:59.489Z,59.56
2023-05-17T22:53:27.140Z,59.72
2023-05-17T22:55:54.732Z,59.79
2023-05-17T22:58:23.556Z,59.77
2023-05-17T23:00:51.630Z,59.68
2023-05-17T23:03:19.716Z,59.75
2023-05-17T23:05:47.416Z,60.44
2023-05-17T23:08:15.738Z,60.13
2023-05-17T23:10:44.733Z,60.28
2023-05-17T23:13:12.498Z,60.51
2023-05-17T23:15:41.168Z,60.78
2023-05-17T23:18:08.936Z,60.62
2023-05-17T23:20:37.255Z,60.38
2023-05-17T23:23:04.933Z,61.14
2023-05-17T23:25:32.708Z,60.97
2023-05-17T23:28:00.486Z,60.79
2023-05-17T23:30:28.129Z,60.75
2023-05-17T23:32:55.758Z,61.07
2023-05-17T23:35:23.558Z,60.83
2023-05-17T23:37:51.569Z,60.55
2023-05-17T23:40:19.707Z,60.78
2023-05-17T23:42:47.708Z,60.71
2023-05-17T23:45:15.391Z,60.75
2023-05-17T23:47:43.176Z,61.05
2023-05-17T23:50:11.065Z,61.28
2023-05-17T23:52:40.318Z,60.54
2023-05-17T23:55:08.159Z,60.88
2023-05-17T23:57:35.862Z,60.43
